createdAt,value
2017-12-28T00:02:07.769Z,88.20
2017-12-28T00:04:41.534Z,88.60
2017-12-28T00:07:16.829Z,88.90
2017-12-28T00:09:50.784Z,88.50
2017-12-28T00:12:25.444Z,89.30
2017-12-28T00:15:01.198Z,88.80
2017-12-28T00:17:36.028Z,88.70
2017-12-28T00:20:09.787Z,88.70
2017-12-28T00:22:45.133Z,87.70
2017-12-28T00:25:18.929Z,87.70
2017-12-28T00:27:52.812Z,87.50
2017-12-28T00:30:27.372Z,87.50
2017-12-28T00:33:01.172Z,87.50
2017-12-28T00:35:35.898Z,87.70
2017-12-28T00:38:09.633Z,87.70
2017-12-28T00:40:43.439Z,87.60
2017-12-28T00:43:18.682Z,87.40
2017-12-28T00:45:53.323Z,87.30
2017-12-28T00:48:27.944Z,87.10
2017-12-28T00:51:01.608Z,86.80
2017-12-28T00:53:35.319Z,86.50
2017-12-28T00:56:10.971Z,85.80
2017-12-28T00:58:44.662Z,85.80
2017-12-28T01:01:18.262Z,85.50
2017-12-28T01:03:52.099Z,85.30
2017-12-28T01:06:26.699Z,85.00
2017-12-28T01:09:00.405Z,84.90
2017-12-28T01:11:34.262Z,84.90
2017-12-28T01:14:08.057Z,84.80
2017-12-28T01:16:42.787Z,84.70
2017-12-28T01:19:16.652Z,85.60
2017-12-28T01:21:50.292Z,86.10
2017-12-28T01:24:24.029Z,86.60
2017-12-28T01:26:58.606Z,88.10
2017-12-28T01:29:32.375Z,88.10
2017-12-28T01:32:06.198Z,88.40
2017-12-28T01:34:40.703Z,88.20
2017-12-28T01:37:14.515Z,88.10
2017-12-28T01:39:48.368Z,87.30
2017-12-28T01:42:22.063Z,86.70
2017-12-28T01:44:56.649Z,84.80
2017-12-28T01:47:30.328Z,84.80
2017-12-28T01:50:04.193Z,84.20
2017-12-28T01:52:37.968Z,83.80
2017-12-28T01:55:11.878Z,83.10
2017-12-28T01:57:45.659Z,82.80
2017-12-28T02:00:19.453Z,82.60
2017-12-28T02:02:54.250Z,82.10
2017-12-28T02:05:28.064Z,81.80
2017-12-28T02:08:01.847Z,81.80
2017-12-28T02:10:35.632Z,80.70
2017-12-28T02:13:09.521Z,79.70
2017-12-28T02:15:43.969Z,78.90
2017-12-28T02:18:18.459Z,78.50
2017-12-28T02:20:52.278Z,78.40
2017-12-28T02:23:26.092Z,73.30
2017-12-28T02:25:59.903Z,72.40
2017-12-28T02:28:34.476Z,73.90
2017-12-28T02:31:08.271Z,73.70
2017-12-28T02:33:42.044Z,74.10
2017-12-28T02:36:16.713Z,73.50
2017-12-28T02:38:50.379Z,73.30
2017-12-28T02:41:24.552Z,72.80
2017-12-28T02:43:58.228Z,73.70
2017-12-28T02:46:32.056Z,73.80
2017-12-28T02:49:06.576Z,73.60
2017-12-28T02:51:40.331Z,73.60
2017-12-28T02:54:14.138Z,74.00
2017-12-28T02:56:48.748Z,73.40
2017-12-28T02:59:22.557Z,73.40
2017-12-28T03:01:56.297Z,73.20
2017-12-28T03:04:30.064Z,73.70
2017-12-28T03:07:04.628Z,74.60
2017-12-28T03:09:38.236Z,74.60
2017-12-28T03:12:12.074Z,75.00
2017-12-28T03:14:45.841Z,75.70
2017-12-28T03:17:19.736Z,76.00
2017-12-28T03:19:54.215Z,76.20
2017-12-28T03:22:28.092Z,76.20
2017-12-28T03:25:01.888Z,76.10
2017-12-28T03:27:35.629Z,76.00
2017-12-28T03:30:10.173Z,76.10
2017-12-28T03:32:43.974Z,76.10
2017-12-28T03:35:17.658Z,75.90
2017-12-28T03:37:51.485Z,75.00
2017-12-28T03:40:25.168Z,75.40
2017-12-28T03:42:58.879Z,75.10
2017-12-28T03:45:32.662Z,74.50
2017-12-28T03:48:06.476Z,74.30
2017-12-28T03:50:40.288Z,74.20
2017-12-28T03:53:15.094Z,74.10
2017-12-28T03:55:48.937Z,74.00
2017-12-28T03:58:22.743Z,74.40
2017-12-28T04:00:56.592Z,74.20
2017-12-28T04:03:30.323Z,74.60
2017-12-28T04:06:05.103Z,74.90
2017-12-28T04:08:38.858Z,75.30
2017-12-28T04:11:12.712Z,75.50
2017-12-28T04:13:46.497Z,75.40
2017-12-28T04:16:20.268Z,75.70
2017-12-28T04:18:53.981Z,75.90
2017-12-28T04:21:27.774Z,75.70
2017-12-28T04:24:01.478Z,75.30
2017-12-28T04:26:35.078Z,75.80
2017-12-28T04:29:08.851Z,75.80
2017-12-28T04:31:42.573Z,75.80
2017-12-28T04:34:32.284Z,76.40
2017-12-28T04:37:06.056Z,76.40
2017-12-28T04:39:39.843Z,76.20
2017-12-28T04:42:14.327Z,77.00
2017-12-28T04:44:48.151Z,77.00
2017-12-28T04:50:28.703Z,77.80
2017-12-28T04:53:02.565Z,77.80
2017-12-28T04:55:36.365Z,78.30
2017-12-28T04:58:10.129Z,78.30
2017-12-28T05:00:43.922Z,78.50
2017-12-28T05:03:17.731Z,78.50
2017-12-28T05:05:51.535Z,78.80
2017-12-28T05:08:26.375Z,78.90
2017-12-28T05:11:01.031Z,79.60
2017-12-28T05:13:34.838Z,79.60
2017-12-28T05:16:08.542Z,79.50
2017-12-28T05:18:42.364Z,80.00
2017-12-28T05:21:15.957Z,80.80
2017-12-28T05:23:49.713Z,81.10
2017-12-28T05:26:23.528Z,81.30
2017-12-28T05:28:57.332Z,81.00
2017-12-28T05:31:31.132Z,81.40
2017-12-28T05:34:04.886Z,81.50
2017-12-28T05:36:39.435Z,81.70
2017-12-28T05:39:13.822Z,81.50
2017-12-28T05:41:47.447Z,81.50
2017-12-28T05:44:22.017Z,81.70
2017-12-28T05:46:56.678Z,82.70
2017-12-28T05:49:31.839Z,81.80
2017-12-28T05:52:05.513Z,81.90
2017-12-28T05:54:39.504Z,81.30
2017-12-28T05:57:13.285Z,81.00
2017-12-28T05:59:47.138Z,80.80
2017-12-28T06:02:20.952Z,81.00
2017-12-28T06:04:56.309Z,81.00
2017-12-28T06:07:30.120Z,81.10
2017-12-28T06:10:03.917Z,81.50
2017-12-28T06:12:37.676Z,81.00
2017-12-28T06:15:11.445Z,80.70
2017-12-28T06:17:46.053Z,80.80
2017-12-28T06:20:19.904Z,80.70
2017-12-28T06:22:53.768Z,80.70
2017-12-28T06:25:27.626Z,80.60
2017-12-28T06:28:01.479Z,80.90
2017-12-28T06:30:35.183Z,80.90
2017-12-28T06:33:09.700Z,80.70
2017-12-28T06:35:44.290Z,81.50
2017-12-28T06:38:17.936Z,81.50
2017-12-28T06:40:51.695Z,82.40
2017-12-28T06:43:25.449Z,82.90
2017-12-28T06:45:59.216Z,83.20
2017-12-28T06:48:32.960Z,83.50
2017-12-28T06:51:06.760Z,83.50
2017-12-28T06:53:40.558Z,83.50
2017-12-28T06:56:14.430Z,83.50
2017-12-28T06:58:48.952Z,83.50
2017-12-28T07:01:22.811Z,83.60
2017-12-28T07:03:56.570Z,83.60
2017-12-28T07:06:30.388Z,83.60
2017-12-28T07:09:04.715Z,83.60
2017-12-28T07:11:39.296Z,83.90
2017-12-28T07:14:13.922Z,83.90
2017-12-28T07:16:47.664Z,84.40
2017-12-28T07:19:21.459Z,84.70
2017-12-28T07:21:56.244Z,84.80
2017-12-28T07:24:32.013Z,84.80
2017-12-28T07:27:05.842Z,85.00
2017-12-28T07:29:40.368Z,84.60
2017-12-28T07:32:14.192Z,85.10
2017-12-28T07:34:48.000Z,85.20
2017-12-28T07:37:21.868Z,84.80
2017-12-28T07:39:55.581Z,84.50
2017-12-28T07:42:29.388Z,84.00
2017-12-28T07:45:02.929Z,83.60
2017-12-28T07:47:36.788Z,83.30
2017-12-28T07:50:12.227Z,82.80
2017-12-28T07:52:45.910Z,82.80
2017-12-28T07:55:19.740Z,83.80
2017-12-28T07:57:53.418Z,82.80
2017-12-28T08:00:28.967Z,82.80
2017-12-28T08:03:02.719Z,82.30
2017-12-28T08:05:36.412Z,82.10
2017-12-28T08:08:10.215Z,81.90
2017-12-28T08:10:44.764Z,81.60
2017-12-28T08:13:18.509Z,81.50
2017-12-28T08:15:52.298Z,81.20
2017-12-28T08:18:26.320Z,80.40
2017-12-28T08:21:00.182Z,80.60
2017-12-28T08:23:33.992Z,80.80
2017-12-28T08:26:07.800Z,80.40
2017-12-28T08:28:41.584Z,80.20
2017-12-28T08:31:15.392Z,80.00
2017-12-28T08:33:49.833Z,80.00
2017-12-28T08:36:25.996Z,79.70
2017-12-28T08:38:59.783Z,79.70
2017-12-28T08:41:33.646Z,79.40
2017-12-28T08:44:07.400Z,79.40
2017-12-28T08:46:41.157Z,79.40
2017-12-28T08:49:15.667Z,80.00
2017-12-28T08:51:49.388Z,79.90
2017-12-28T08:54:23.126Z,79.80
2017-12-28T08:56:56.966Z,79.40
2017-12-28T08:59:30.741Z,79.40
2017-12-28T09:02:04.611Z,79.50
2017-12-28T09:04:38.444Z,79.50
2017-12-28T09:07:13.066Z,79.00
2017-12-28T09:09:46.745Z,78.90
2017-12-28T09:12:20.487Z,78.10
2017-12-28T09:14:54.312Z,77.70
2017-12-28T09:17:28.113Z,77.80
2017-12-28T09:20:01.810Z,77.10
2017-12-28T09:22:35.703Z,76.80
2017-12-28T09:25:09.324Z,76.00
2017-12-28T09:27:43.085Z,75.40
2017-12-28T09:30:17.696Z,75.50
2017-12-28T09:32:51.241Z,74.90
2017-12-28T09:35:25.085Z,74.80
2017-12-28T09:37:58.888Z,73.50
2017-12-28T09:40:32.753Z,73.60
2017-12-28T09:43:06.546Z,73.10
2017-12-28T09:45:40.205Z,72.20
2017-12-28T09:48:13.847Z,71.60
2017-12-28T09:50:47.617Z,71.60
2017-12-28T09:53:21.357Z,70.70
2017-12-28T09:55:55.140Z,69.90
2017-12-28T09:58:28.994Z,70.30
2017-12-28T10:01:03.515Z,69.00
2017-12-28T10:03:38.040Z,69.20
2017-12-28T10:06:11.837Z,69.10
2017-12-28T10:08:45.758Z,68.20
2017-12-28T10:11:19.442Z,68.30
2017-12-28T10:13:54.698Z,67.60
2017-12-28T10:16:29.125Z,67.30
2017-12-28T10:19:03.584Z,66.60
2017-12-28T10:21:37.340Z,66.60
2017-12-28T10:24:11.942Z,66.30
2017-12-28T10:26:46.457Z,65.80
2017-12-28T10:29:20.235Z,65.80
2017-12-28T10:31:54.033Z,66.20
2017-12-28T10:34:28.014Z,65.90
2017-12-28T10:37:03.218Z,65.90
2017-12-28T10:39:37.026Z,65.90
2017-12-28T10:42:11.579Z,65.30
2017-12-28T10:44:45.377Z,65.20
2017-12-28T10:47:19.210Z,65.10
2017-12-28T10:49:52.932Z,65.20
2017-12-28T10:52:26.722Z,65.20
2017-12-28T10:55:00.569Z,65.30
2017-12-28T10:57:34.283Z,64.90
2017-12-28T11:00:08.622Z,64.10
2017-12-28T11:02:42.431Z,65.60
2017-12-28T11:05:16.924Z,64.30
2017-12-28T11:07:50.526Z,64.10
2017-12-28T11:10:24.216Z,64.70
2017-12-28T11:12:58.025Z,64.60
2017-12-28T11:15:31.776Z,64.40
2017-12-28T11:18:05.536Z,64.30
2017-12-28T11:20:39.208Z,64.50
2017-12-28T11:23:12.984Z,63.70
2017-12-28T11:25:46.668Z,63.80
2017-12-28T11:28:21.216Z,64.50
2017-12-28T11:30:54.831Z,64.80
2017-12-28T11:33:29.076Z,63.50
2017-12-28T11:36:02.760Z,63.90
2017-12-28T11:38:36.540Z,63.50
2017-12-28T11:53:16.782Z,62.00
2017-12-28T11:56:05.448Z,61.60
2017-12-28T11:58:52.452Z,61.70
2017-12-28T12:01:35.931Z,61.60
2017-12-28T12:04:12.267Z,61.60
2017-12-28T12:07:07.808Z,61.80
2017-12-28T12:09:49.397Z,61.80
2017-12-28T12:12:24.046Z,62.30
2017-12-28T12:15:01.018Z,62.10
2017-12-28T12:17:35.095Z,61.10
2017-12-28T12:20:08.950Z,60.80
2017-12-28T12:22:44.632Z,60.00
2017-12-28T12:25:21.285Z,60.00
2017-12-28T12:27:56.564Z,59.50
2017-12-28T12:30:30.457Z,59.50
2017-12-28T12:33:05.067Z,60.00
2017-12-28T12:35:43.583Z,59.30
2017-12-28T12:38:18.975Z,59.30
2017-12-28T12:40:52.732Z,59.00
2017-12-28T12:43:26.538Z,58.00
2017-12-28T12:46:00.308Z,58.30
2017-12-28T12:48:34.977Z,58.70
2017-12-28T12:51:08.767Z,58.70
2017-12-28T12:53:42.572Z,57.80
2017-12-28T12:56:16.340Z,57.60
2017-12-28T12:58:50.169Z,57.80
2017-12-28T13:01:24.704Z,57.50
2017-12-28T13:03:59.026Z,57.50
2017-12-28T13:06:33.519Z,58.20
2017-12-28T13:09:07.250Z,58.20
2017-12-28T13:11:41.809Z,58.00
2017-12-28T13:14:16.464Z,58.30
2017-12-28T13:16:53.176Z,56.60
2017-12-28T13:19:26.982Z,56.60
2017-12-28T13:22:00.837Z,55.90
2017-12-28T13:24:34.567Z,55.20
2017-12-28T13:27:08.298Z,55.00
2017-12-28T13:29:42.962Z,52.80
2017-12-28T13:32:16.650Z,52.70
2017-12-28T13:34:52.938Z,53.70
2017-12-28T13:37:27.719Z,53.70
2017-12-28T13:40:01.509Z,54.20
2017-12-28T13:42:36.766Z,53.90
2017-12-28T13:45:10.472Z,51.40
2017-12-28T13:47:44.327Z,52.40
2017-12-28T13:50:18.920Z,52.10
2017-12-28T13:52:52.625Z,52.10
2017-12-28T13:55:27.084Z,53.00
2017-12-28T13:58:00.702Z,52.70
2017-12-28T14:00:34.563Z,52.50
2017-12-28T14:03:09.147Z,51.90
2017-12-28T14:05:42.970Z,51.90
2017-12-28T14:08:16.733Z,51.20
2017-12-28T14:10:50.580Z,50.50
2017-12-28T14:13:24.377Z,50.20
2017-12-28T14:15:58.092Z,50.50
2017-12-28T14:18:31.896Z,50.40
2017-12-28T14:21:05.680Z,50.40
2017-12-28T14:23:39.524Z,50.80
2017-12-28T14:26:14.092Z,45.70
2017-12-28T14:28:47.789Z,45.60
2017-12-28T14:31:21.516Z,45.60
2017-12-28T14:33:55.359Z,47.10
2017-12-28T14:36:29.216Z,46.80
2017-12-28T14:39:03.876Z,48.10
2017-12-28T14:41:37.680Z,48.10
2017-12-28T14:44:11.609Z,47.00
2017-12-28T14:46:45.424Z,46.90
2017-12-28T14:49:19.956Z,48.20
2017-12-28T14:51:53.521Z,48.20
2017-12-28T14:54:27.429Z,50.00
2017-12-28T14:57:01.226Z,51.10
2017-12-28T14:59:35.875Z,52.20
2017-12-28T15:02:09.659Z,52.20
2017-12-28T15:04:44.296Z,52.10
2017-12-28T15:07:18.678Z,52.70
2017-12-28T15:09:52.318Z,53.20
2017-12-28T15:12:27.033Z,51.90
2017-12-28T15:15:00.766Z,51.90
2017-12-28T15:17:34.560Z,52.10
2017-12-28T15:20:09.160Z,52.10
2017-12-28T15:22:42.963Z,52.10
2017-12-28T15:25:16.807Z,52.20
2017-12-28T15:27:50.616Z,52.10
2017-12-28T15:30:25.187Z,52.40
2017-12-28T15:32:58.992Z,52.40
2017-12-28T15:35:32.753Z,52.70
2017-12-28T15:38:06.513Z,52.50
2017-12-28T15:40:40.262Z,52.40
2017-12-28T15:43:14.116Z,52.60
2017-12-28T15:45:48.647Z,52.50
2017-12-28T15:48:22.350Z,52.50
2017-12-28T15:50:56.965Z,52.50
2017-12-28T15:53:30.903Z,52.50
2017-12-28T15:56:05.394Z,52.30
2017-12-28T15:58:39.388Z,52.20
2017-12-28T16:01:13.912Z,52.60
2017-12-28T16:03:48.582Z,52.80
2017-12-28T16:06:23.174Z,52.90
2017-12-28T16:08:57.732Z,53.20
2017-12-28T16:11:31.406Z,53.20
2017-12-28T16:14:05.004Z,53.30
2017-12-28T16:16:38.749Z,53.20
2017-12-28T16:19:13.376Z,53.30
2017-12-28T16:24:27.274Z,53.40
2017-12-28T16:27:01.040Z,53.30
2017-12-28T16:29:34.840Z,53.00
2017-12-28T16:32:10.666Z,53.50
2017-12-28T16:34:44.422Z,53.50
2017-12-28T16:37:19.115Z,53.60
2017-12-28T16:39:52.969Z,53.60
2017-12-28T16:42:26.692Z,53.40
2017-12-28T16:45:01.267Z,54.50
2017-12-28T16:47:35.060Z,54.60
2017-12-28T16:50:09.681Z,60.80
2017-12-28T16:52:43.281Z,61.00
2017-12-28T16:55:17.032Z,64.70
2017-12-28T16:57:50.934Z,69.10
2017-12-28T17:00:24.699Z,71.80
2017-12-28T17:02:58.425Z,73.90
2017-12-28T17:05:32.325Z,75.20
2017-12-28T17:08:06.189Z,75.50
2017-12-28T17:10:39.996Z,75.80
2017-12-28T17:13:14.704Z,76.60
2017-12-28T17:15:48.471Z,76.60
2017-12-28T17:18:22.216Z,75.90
2017-12-28T17:20:55.892Z,75.60
2017-12-28T17:23:29.749Z,75.70
2017-12-28T17:26:04.408Z,76.00
2017-12-28T17:28:38.043Z,74.60
2017-12-28T17:31:11.693Z,74.60
2017-12-28T17:33:46.331Z,74.40
2017-12-28T17:36:20.914Z,74.60
2017-12-28T17:38:54.660Z,74.70
2017-12-28T17:41:28.508Z,74.10
2017-12-28T17:44:03.256Z,73.90
2017-12-28T17:46:37.072Z,73.80
2017-12-28T17:49:11.739Z,74.00
2017-12-28T17:51:45.492Z,74.00
2017-12-28T17:54:19.278Z,74.70
2017-12-28T17:56:53.248Z,72.60
2017-12-28T17:59:26.808Z,73.30
2017-12-28T18:02:00.521Z,73.50
2017-12-28T18:04:34.304Z,73.50
2017-12-28T18:07:07.923Z,72.60
2017-12-28T18:09:42.630Z,71.60
2017-12-28T18:15:20.352Z,71.80
2017-12-28T18:17:54.087Z,71.90
2017-12-28T18:20:27.855Z,69.60
2017-12-28T18:23:01.616Z,70.80
2017-12-28T18:25:36.152Z,70.90
2017-12-28T18:31:13.371Z,70.10
2017-12-28T18:33:47.168Z,70.20
2017-12-28T18:36:20.999Z,70.30
2017-12-28T18:38:54.805Z,69.80
2017-12-28T18:41:28.580Z,70.30
2017-12-28T18:44:02.440Z,68.90
2017-12-28T18:46:36.191Z,67.80
2017-12-28T18:49:09.902Z,68.00
2017-12-28T18:51:45.016Z,66.40
2017-12-28T18:54:18.798Z,66.70
2017-12-28T18:56:52.641Z,66.60
2017-12-28T18:59:26.396Z,66.00
2017-12-28T19:02:00.269Z,65.60
2017-12-28T19:04:33.997Z,64.40
2017-12-28T19:07:07.970Z,64.90
2017-12-28T19:09:41.845Z,63.50
2017-12-28T19:12:15.599Z,65.40
2017-12-28T19:14:49.257Z,64.40
2017-12-28T19:17:23.784Z,64.20
2017-12-28T19:19:57.584Z,64.10
2017-12-28T19:22:32.043Z,65.40
2017-12-28T19:25:05.709Z,65.40
2017-12-28T19:27:39.393Z,63.80
2017-12-28T19:30:13.193Z,64.10
2017-12-28T19:32:47.616Z,62.80
2017-12-28T19:35:21.383Z,62.50
2017-12-28T19:37:55.162Z,62.90
2017-12-28T19:40:29.660Z,62.50
2017-12-28T19:43:03.385Z,62.50
2017-12-28T19:45:36.963Z,62.60
2017-12-28T19:48:10.788Z,62.60
2017-12-28T19:50:45.294Z,62.70
2017-12-28T19:53:19.063Z,62.50
2017-12-28T19:55:53.622Z,62.60
2017-12-28T19:58:27.487Z,62.50
2017-12-28T20:01:01.100Z,61.90
2017-12-28T20:03:35.990Z,61.80
2017-12-28T20:06:09.683Z,61.70
2017-12-28T20:08:44.311Z,61.70
2017-12-28T20:11:18.814Z,61.70
2017-12-28T20:13:53.424Z,61.30
2017-12-28T20:16:27.173Z,61.20
2017-12-28T20:19:00.888Z,60.90
2017-12-28T20:21:34.579Z,61.60
2017-12-28T20:24:08.160Z,60.90
2017-12-28T20:26:41.778Z,62.50
2017-12-28T20:29:15.501Z,61.90
2017-12-28T20:31:49.981Z,62.60
2017-12-28T20:34:23.729Z,62.50
2017-12-28T20:36:57.614Z,61.20
2017-12-28T20:39:31.424Z,62.10
2017-12-28T20:42:05.166Z,62.30
2017-12-28T20:44:38.993Z,61.50
2017-12-28T20:47:12.581Z,62.60
2017-12-28T20:49:46.456Z,61.90
2017-12-28T20:52:20.289Z,62.20
2017-12-28T20:54:54.270Z,61.60
2017-12-28T20:57:27.931Z,62.60
2017-12-28T21:00:01.772Z,62.60
2017-12-28T21:02:35.474Z,62.60
2017-12-28T21:05:09.208Z,62.50
2017-12-28T21:07:42.882Z,62.50
2017-12-28T21:10:16.812Z,62.60
2017-12-28T21:12:50.555Z,63.10
2017-12-28T21:15:24.302Z,62.50
2017-12-28T21:17:58.125Z,62.50
2017-12-28T21:20:31.916Z,63.40
2017-12-28T21:23:06.521Z,63.10
2017-12-28T21:25:40.227Z,63.10
2017-12-28T21:28:14.025Z,62.70
2017-12-28T21:30:47.743Z,62.70
2017-12-28T21:33:22.296Z,62.90
2017-12-28T21:35:56.745Z,63.10
2017-12-28T21:38:31.887Z,63.80
2017-12-28T21:41:05.747Z,63.10
2017-12-28T21:43:39.563Z,63.70
2017-12-28T21:46:14.307Z,63.70
2017-12-28T21:48:48.904Z,63.70
2017-12-28T21:51:22.509Z,63.80
2017-12-28T21:53:56.362Z,64.00
2017-12-28T21:56:30.136Z,64.00
2017-12-28T21:59:03.914Z,64.20
2017-12-28T22:01:37.555Z,64.00
2017-12-28T22:04:12.148Z,64.20
2017-12-28T22:06:46.270Z,64.10
2017-12-28T22:09:20.142Z,63.70
2017-12-28T22:11:53.979Z,64.10
2017-12-28T22:14:27.759Z,64.50
2017-12-28T22:17:02.180Z,64.60
2017-12-28T22:19:37.778Z,64.40
2017-12-28T22:22:11.586Z,64.30
2017-12-28T22:24:46.181Z,64.10
2017-12-28T22:27:19.942Z,64.10
2017-12-28T22:29:56.169Z,64.40
2017-12-28T22:32:30.021Z,64.20
2017-12-28T22:35:03.590Z,64.50
2017-12-28T22:37:38.189Z,64.50
2017-12-28T22:40:12.904Z,64.60
2017-12-28T22:42:47.559Z,64.40
2017-12-28T22:45:21.256Z,64.40
2017-12-28T22:47:55.075Z,64.40
2017-12-28T22:50:29.567Z,64.50
2017-12-28T22:53:03.264Z,64.50
2017-12-28T22:55:36.981Z,64.20
2017-12-28T22:58:11.521Z,64.40
2017-12-28T23:00:45.292Z,64.40
2017-12-28T23:03:18.916Z,64.50
2017-12-28T23:05:52.691Z,64.40
2017-12-28T23:08:26.367Z,64.40
2017-12-28T23:11:00.897Z,64.80
2017-12-28T23:13:34.557Z,64.70
2017-12-28T23:16:08.214Z,65.00
2017-12-28T23:18:41.970Z,65.30
2017-12-28T23:21:16.672Z,65.30
2017-12-28T23:23:50.334Z,65.40
2017-12-28T23:26:24.310Z,65.70
2017-12-28T23:28:58.976Z,65.80
2017-12-28T23:31:32.576Z,66.20
2017-12-28T23:34:06.649Z,65.90
2017-12-28T23:36:41.274Z,66.20
2017-12-28T23:39:16.801Z,66.70
2017-12-28T23:41:50.423Z,66.50
2017-12-28T23:44:25.156Z,66.80
2017-12-28T23:46:58.828Z,66.60
2017-12-28T23:49:33.433Z,66.90
2017-12-28T23:52:07.997Z,66.80
2017-12-28T23:54:42.534Z,66.90
2017-12-28T23:57:17.748Z,66.70
2017-12-28T23:59:51.463Z,66.70
